Terminal Aerodrome Forecast
Issued by NWS

Home | Current Version | Previous Version | Text Only | Print | Product List | Glossary On
Versions: 1 2 3 4 5 6 7 8 9 10 11 12 13 14 15 16 17
000
FTUS46 KMFR 230500
TAFLMT
TAF
KLMT 230528Z 2306/2406 23006KT P6SM BKN035
     FM230800 22006KT 6SM -SHRASN BR BKN035 OVC050
     FM231200 19008KT P6SM SCT020 BKN040
     FM231900 23014G20KT P6SM BKN060
     FM232300 24013KT P6SM -SHRA OVC040=

USA.gov is the U.S. government's official web portal to all federal, state and local government web resources and services.